Time;durP1;ratioP1;P1;durP2;ratioP2;P2;SDS_P1;SDS_P2;PMS_P1;PMS_P2;Temp;Humidity;BMP_temperature;BMP_pressure;BME280_temperature;BME280_humidity;BME280_pressure;Samples;Min_cycle;Max_cycle;Signal;HPM_P1;HPM_P2
2023/03/06 00:00:33;;;;;;;40.00;15.60;;;;;;;2.19;56.29;100402.77;107417;1254;108972;-60
2023/03/06 00:03:15;;;;;;;29.40;15.00;;;;;;;2.18;56.85;100400.86;107432;1254;97869;-59
2023/03/06 00:05:44;;;;;;;36.70;16.30;;;;;;;2.16;56.70;100400.99;107419;1253;97854;-60
2023/03/06 00:08:13;;;;;;;28.20;14.30;;;;;;;2.15;56.64;100402.49;107439;1254;112725;-62
2023/03/06 00:10:41;;;;;;;26.80;14.10;;;;;;;2.14;56.75;100407.68;107432;1254;110203;-60
2023/03/06 00:13:14;;;;;;;30.50;15.00;;;;;;;2.14;56.79;100405.52;107405;1254;108542;-60
2023/03/06 00:15:42;;;;;;;34.60;15.80;;;;;;;2.13;56.83;100405.08;107434;1254;97849;-60
2023/03/06 00:18:10;;;;;;;32.20;14.80;;;;;;;2.13;56.81;100402.23;107447;1254;97956;-59
2023/03/06 00:20:41;;;;;;;27.40;15.00;;;;;;;2.14;56.83;100401.67;107424;1257;112048;-61
2023/03/06 00:23:10;;;;;;;33.50;14.60;;;;;;;2.14;56.92;100399.66;107527;1254;109796;-62
2023/03/06 00:25:44;;;;;;;27.70;15.70;;;;;;;2.15;56.91;100395.74;107532;1256;108489;-60
2023/03/06 00:28:14;;;;;;;30.40;14.90;;;;;;;2.15;56.80;100395.54;107284;1260;97811;-60
2023/03/06 00:30:43;;;;;;;35.10;14.70;;;;;;;2.17;57.09;100391.23;107534;1254;98430;-60
2023/03/06 00:33:11;;;;;;;21.80;11.90;;;;;;;2.16;57.21;100388.60;107447;1254;112380;-60
2023/03/06 00:35:40;;;;;;;26.10;12.10;;;;;;;2.19;56.67;100385.98;107339;1254;110050;-60
2023/03/06 00:38:11;;;;;;;28.00;13.00;;;;;;;2.24;56.38;100387.30;107449;1254;108348;-61
2023/03/06 00:40:40;;;;;;;23.40;11.10;;;;;;;2.28;56.45;100385.63;107313;1254;97737;-61
2023/03/06 00:43:08;;;;;;;33.10;15.00;;;;;;;2.32;56.20;100382.21;107345;1254;98005;-61
2023/03/06 00:45:37;;;;;;;33.00;15.70;;;;;;;2.34;56.59;100384.34;107489;1254;111309;-61
2023/03/06 00:48:09;;;;;;;33.80;16.80;;;;;;;2.36;56.55;100382.31;107536;1253;109454;-61
2023/03/06 00:50:37;;;;;;;37.10;15.80;;;;;;;2.35;56.64;100379.15;107466;1253;108746;-60
2023/03/06 00:53:05;;;;;;;28.80;15.20;;;;;;;2.34;56.74;100380.97;107455;1254;97902;-60
2023/03/06 00:55:34;;;;;;;31.70;15.30;;;;;;;2.35;56.88;100382.36;107523;1256;98331;-61
2023/03/06 00:58:02;;;;;;;30.60;15.50;;;;;;;2.36;56.69;100388.49;107532;1254;112451;-61
2023/03/06 01:00:31;;;;;;;49.00;17.50;;;;;;;2.35;56.67;100385.88;107499;1254;109926;-59
2023/03/06 01:02:59;;;;;;;96.60;29.80;;;;;;;2.36;56.99;100385.15;107327;1254;109053;-61
2023/03/06 01:05:34;;;;;;;150.40;43.70;;;;;;;2.35;57.05;100385.54;107482;1254;97832;-62
2023/03/06 01:08:04;;;;;;;155.40;47.50;;;;;;;2.35;56.98;100387.30;107476;1254;98370;-61
2023/03/06 01:10:32;;;;;;;182.20;52.20;;;;;;;2.36;56.87;100386.92;107464;1254;111097;-61
2023/03/06 01:13:00;;;;;;;200.30;58.20;;;;;;;2.37;56.70;100386.17;107432;1256;108722;-60
2023/03/06 01:15:29;;;;;;;172.60;54.00;;;;;;;2.37;56.69;100383.16;107363;1254;108313;-60
2023/03/06 01:17:58;;;;;;;160.00;48.60;;;;;;;2.38;56.74;100383.44;107378;1257;97955;-62
2023/03/06 01:20:27;;;;;;;168.00;53.40;;;;;;;2.39;56.66;100380.53;107348;1254;97714;-60
2023/03/06 01:22:55;;;;;;;149.60;48.90;;;;;;;2.40;56.56;100374.45;107484;1254;110375;-60
2023/03/06 01:25:24;;;;;;;152.80;44.80;;;;;;;2.41;56.59;100378.49;107457;1257;109534;-61
2023/03/06 01:27:53;;;;;;;165.60;47.60;;;;;;;2.40;56.66;100371.77;107320;1258;107164;-61
2023/03/06 01:30:21;;;;;;;146.70;47.30;;;;;;;2.40;56.77;100377.27;107165;1260;97800;-59
2023/03/06 01:32:49;;;;;;;114.90;38.20;;;;;;;2.40;56.85;100375.50;107471;1254;98352;-61
2023/03/06 01:35:18;;;;;;;113.20;36.80;;;;;;;2.40;56.69;100372.69;107444;1257;110780;-61
2023/03/06 01:37:46;;;;;;;100.80;33.40;;;;;;;2.40;56.86;100373.38;107447;1253;110014;-59
2023/03/06 01:40:15;;;;;;;82.70;28.10;;;;;;;2.38;57.02;100370.66;107389;1256;107681;-60
2023/03/06 01:42:48;;;;;;;55.90;22.40;;;;;;;2.37;57.23;100375.19;107385;1254;98480;-61
2023/03/06 01:45:16;;;;;;;56.90;22.80;;;;;;;2.36;57.27;100374.16;107256;1255;97983;-60
2023/03/06 01:47:44;;;;;;;44.60;19.90;;;;;;;2.36;57.40;100370.63;107315;1254;113426;-60
2023/03/06 01:50:13;;;;;;;56.30;20.20;;;;;;;2.36;57.64;100373.81;107403;1254;110173;-61
2023/03/06 01:52:50;;;;;;;64.80;23.90;;;;;;;2.35;57.62;100370.30;107420;1254;108587;-61
2023/03/06 01:55:24;;;;;;;80.00;23.30;;;;;;;2.33;57.83;100371.83;107434;1253;97851;-62
2023/03/06 01:58:00;;;;;;;36.50;15.30;;;;;;;2.34;57.67;100362.06;107500;1253;97857;-61
2023/03/06 02:00:29;;;;;;;26.70;11.50;;;;;;;2.37;56.84;100363.12;107413;1253;111819;-61
2023/03/06 02:03:05;;;;;;;28.40;11.30;;;;;;;2.41;56.31;100362.52;107330;1253;110229;-60
2023/03/06 02:05:39;;;;;;;23.30;9.10;;;;;;;2.47;55.58;100358.82;107415;1253;107554;-60
2023/03/06 02:08:12;;;;;;;21.30;10.20;;;;;;;2.52;55.18;100358.52;107378;1253;97941;-60
2023/03/06 02:11:01;;;;;;;30.90;11.80;;;;;;;2.57;54.83;100360.52;107474;1254;97972;-61
2023/03/06 02:13:30;;;;;;;26.70;10.20;;;;;;;2.61;54.71;100353.73;107426;1254;112231;-62
2023/03/06 02:15:58;;;;;;;30.60;13.70;;;;;;;2.63;54.66;100347.70;107319;1254;108678;-60
2023/03/06 02:18:28;;;;;;;32.00;14.30;;;;;;;2.65;54.60;100353.25;107424;1254;107962;-60
2023/03/06 02:21:01;;;;;;;38.40;13.80;;;;;;;2.66;54.81;100350.39;107354;1254;97834;-59
2023/03/06 02:23:55;;;;;;;46.70;18.00;;;;;;;2.63;54.70;100360.81;107344;1256;97742;-60
2023/03/06 02:26:25;;;;;;;56.30;17.60;;;;;;;2.61;55.18;100363.26;107255;1257;112065;-60
2023/03/06 02:28:57;;;;;;;61.40;20.20;;;;;;;2.60;55.38;100359.23;107236;1256;109175;-60
2023/03/06 02:31:29;;;;;;;53.90;19.50;;;;;;;2.60;55.52;100361.33;107296;1257;107312;-60
2023/03/06 02:34:12;;;;;;;59.20;20.10;;;;;;;2.59;55.94;100363.00;107412;1257;97915;-61
2023/03/06 02:36:59;;;;;;;54.30;21.90;;;;;;;2.57;56.22;100363.01;107289;1254;97954;-59
2023/03/06 02:39:32;;;;;;;57.70;20.70;;;;;;;2.55;56.45;100360.30;107297;1256;112235;-59
2023/03/06 02:42:01;;;;;;;49.70;18.90;;;;;;;2.52;56.52;100360.78;107502;1254;109916;-61
2023/03/06 02:44:33;;;;;;;55.60;20.00;;;;;;;2.51;56.81;100360.84;107334;1254;108243;-61
2023/03/06 02:47:02;;;;;;;55.30;20.70;;;;;;;2.50;57.10;100362.33;107344;1257;97766;-61
2023/03/06 02:49:30;;;;;;;55.40;19.90;;;;;;;2.48;57.28;100361.92;107459;1256;98386;-59
2023/03/06 02:51:58;;;;;;;46.30;19.30;;;;;;;2.47;57.31;100367.12;107440;1255;111455;-61
2023/03/06 02:54:27;;;;;;;60.40;21.00;;;;;;;2.44;57.69;100364.13;107217;1257;109933;-61
2023/03/06 02:56:56;;;;;;;48.90;17.60;;;;;;;2.41;57.64;100361.09;107428;1257;107868;-60
2023/03/06 02:59:25;;;;;;;63.30;21.30;;;;;;;2.41;57.84;100364.29;107429;1259;97947;-60
2023/03/06 03:01:54;;;;;;;37.30;15.10;;;;;;;2.40;57.96;100363.67;107453;1254;97941;-60
2023/03/06 03:04:25;;;;;;;37.80;16.10;;;;;;;2.38;57.97;100366.73;107338;1254;110777;-62
2023/03/06 03:06:54;;;;;;;38.50;14.90;;;;;;;2.39;58.07;100362.70;107363;1254;108726;-61
2023/03/06 03:09:22;;;;;;;38.30;14.90;;;;;;;2.38;58.29;100361.10;107327;1254;107694;-59
2023/03/06 03:11:51;;;;;;;45.30;15.80;;;;;;;2.40;58.38;100365.08;107311;1254;97833;-61
2023/03/06 03:14:22;;;;;;;42.40;16.10;;;;;;;2.42;58.47;100374.70;107446;1254;97706;-60
2023/03/06 03:16:51;;;;;;;38.70;14.80;;;;;;;2.42;58.74;100364.80;107459;1254;111936;-60
2023/03/06 03:19:19;;;;;;;33.30;14.10;;;;;;;2.43;58.95;100366.86;107407;1254;109134;-61
2023/03/06 03:21:50;;;;;;;42.70;13.30;;;;;;;2.44;58.82;100367.11;107458;1254;107645;-59
2023/03/06 03:24:21;;;;;;;34.00;13.00;;;;;;;2.46;58.84;100371.60;107419;1254;97861;-59
2023/03/06 03:26:50;;;;;;;29.40;11.40;;;;;;;2.50;59.00;100369.77;107423;1257;98357;-62
2023/03/06 03:29:20;;;;;;;27.00;11.50;;;;;;;2.54;59.17;100378.05;107304;1254;109860;-59
2023/03/06 03:31:51;;;;;;;24.70;11.10;;;;;;;2.58;59.15;100379.20;107450;1254;109737;-61
2023/03/06 03:34:20;;;;;;;22.10;10.50;;;;;;;2.61;59.16;100383.61;107382;1254;107768;-62
2023/03/06 03:36:49;;;;;;;27.20;10.00;;;;;;;2.63;59.18;100386.68;107086;1257;97938;-59
2023/03/06 03:39:23;;;;;;;23.10;9.80;;;;;;;2.64;59.21;100386.23;107302;1253;97753;-60
2023/03/06 03:41:52;;;;;;;21.30;9.00;;;;;;;2.68;59.32;100379.14;107331;1254;111326;-61
2023/03/06 03:44:23;;;;;;;22.00;8.90;;;;;;;2.70;59.14;100378.66;107328;1254;108097;-61
2023/03/06 03:46:52;;;;;;;26.20;8.80;;;;;;;2.75;59.04;100382.27;107372;1257;108736;-62
2023/03/06 03:49:22;;;;;;;18.80;9.40;;;;;;;2.78;58.99;100383.61;107395;1256;97852;-62
2023/03/06 03:51:57;;;;;;;23.30;10.00;;;;;;;2.80;58.82;100383.17;107442;1254;97707;-61
2023/03/06 03:54:27;;;;;;;26.40;9.70;;;;;;;2.80;58.57;100386.49;107382;1256;112804;-60
2023/03/06 03:56:57;;;;;;;20.80;8.80;;;;;;;2.79;58.68;100384.60;107444;1254;109723;-62
2023/03/06 03:59:29;;;;;;;29.00;10.00;;;;;;;2.78;58.63;100385.97;107389;1254;107902;-60
2023/03/06 04:02:20;;;;;;;27.00;10.40;;;;;;;2.75;58.48;100385.45;107261;1254;97903;-60
2023/03/06 04:05:05;;;;;;;24.00;9.90;;;;;;;2.72;58.51;100387.73;107318;1259;98392;-62
2023/03/06 04:07:34;;;;;;;16.70;8.20;;;;;;;2.71;58.61;100390.80;107441;1254;111341;-61
2023/03/06 04:10:05;;;;;;;22.90;9.40;;;;;;;2.70;58.22;100393.01;107346;1256;108575;-59
2023/03/06 04:12:36;;;;;;;22.70;9.80;;;;;;;2.67;58.39;100395.13;107299;1254;108218;-61
2023/03/06 04:15:07;;;;;;;23.50;9.80;;;;;;;2.64;58.12;100390.48;107438;1254;97740;-60
2023/03/06 04:17:35;;;;;;;21.80;8.90;;;;;;;2.61;58.07;100392.47;107376;1254;97852;-61
2023/03/06 04:20:06;;;;;;;21.40;9.50;;;;;;;2.57;58.15;100392.37;107462;1254;111872;-61
2023/03/06 04:22:34;;;;;;;28.80;9.40;;;;;;;2.53;58.29;100392.08;107566;1254;108053;-61
2023/03/06 04:25:04;;;;;;;29.00;9.10;;;;;;;2.51;58.19;100391.33;107486;1254;108143;-61
2023/03/06 04:27:32;;;;;;;21.40;8.40;;;;;;;2.48;58.24;100394.14;107630;1253;97838;-62
2023/03/06 04:30:01;;;;;;;18.90;8.80;;;;;;;2.45;58.38;100400.88;107506;1254;98018;-60
2023/03/06 04:32:31;;;;;;;15.40;8.30;;;;;;;2.41;58.49;100403.59;107543;1254;111895;-60
2023/03/06 04:35:01;;;;;;;16.40;8.70;;;;;;;2.36;58.41;100407.23;107477;1254;110050;-59
2023/03/06 04:37:33;;;;;;;18.50;8.10;;;;;;;2.33;58.38;100406.73;107475;1254;108481;-60
2023/03/06 04:40:05;;;;;;;20.30;8.90;;;;;;;2.31;58.34;100416.38;107530;1253;97726;-61
2023/03/06 04:42:33;;;;;;;21.60;8.60;;;;;;;2.31;58.32;100416.76;107470;1254;97816;-60
2023/03/06 04:45:02;;;;;;;22.50;8.90;;;;;;;2.30;58.39;100422.11;107416;1254;112040;-60
2023/03/06 04:47:31;;;;;;;33.40;9.50;;;;;;;2.29;58.50;100424.66;107487;1254;109920;-61
2023/03/06 04:50:00;;;;;;;23.40;8.80;;;;;;;2.28;58.49;100427.56;107379;1257;107837;-61
2023/03/06 04:52:28;;;;;;;26.90;10.00;;;;;;;2.27;58.44;100428.11;107356;1254;97881;-60
2023/03/06 04:54:57;;;;;;;44.30;11.40;;;;;;;2.27;58.49;100427.05;107466;1257;98468;-61
2023/03/06 04:57:26;;;;;;;52.00;12.60;;;;;;;2.28;58.62;100431.41;107472;1257;111785;-61
2023/03/06 04:59:54;;;;;;;43.20;15.60;;;;;;;2.29;58.57;100431.20;107471;1254;109664;-62
2023/03/06 05:02:23;;;;;;;48.70;12.40;;;;;;;2.29;58.57;100433.86;107457;1254;108615;-62
2023/03/06 05:04:51;;;;;;;37.80;12.60;;;;;;;2.28;58.97;100437.45;107469;1254;97897;-61
2023/03/06 05:07:20;;;;;;;56.70;24.70;;;;;;;2.35;59.48;100445.88;107494;1254;97690;-61
2023/03/06 05:09:48;;;;;;;40.70;25.60;;;;;;;2.38;59.26;100443.77;107489;1254;111869;-60
2023/03/06 05:12:17;;;;;;;28.30;16.30;;;;;;;2.39;59.06;100448.31;107508;1253;111051;-61
2023/03/06 05:14:52;;;;;;;33.70;15.90;;;;;;;2.41;59.09;100452.82;107482;1254;108484;-61
2023/03/06 05:17:25;;;;;;;46.40;17.20;;;;;;;2.42;59.01;100457.50;107418;1254;97915;-62
2023/03/06 05:19:54;;;;;;;54.50;16.80;;;;;;;2.44;59.19;100457.04;107479;1254;97726;-62
2023/03/06 05:22:22;;;;;;;52.20;17.00;;;;;;;2.47;59.30;100464.29;107350;1254;111114;-61
2023/03/06 05:24:52;;;;;;;52.60;18.20;;;;;;;2.49;59.20;100464.34;107433;1254;109563;-62
2023/03/06 05:27:20;;;;;;;45.50;19.80;;;;;;;2.50;59.15;100465.69;107169;1254;106093;-61
2023/03/06 05:29:48;;;;;;;55.00;19.90;;;;;;;2.52;59.07;100469.48;107422;1254;97858;-61
2023/03/06 05:32:17;;;;;;;61.10;20.90;;;;;;;2.56;59.04;100473.89;107423;1254;97709;-61
2023/03/06 05:34:46;;;;;;;72.70;21.60;;;;;;;2.59;59.29;100473.69;107448;1254;109890;-61
2023/03/06 05:37:15;;;;;;;58.00;23.10;;;;;;;2.70;59.79;100477.61;107435;1254;109732;-60
2023/03/06 05:39:44;;;;;;;47.60;16.80;;;;;;;2.77;59.53;100483.55;107466;1254;109200;-61
2023/03/06 05:42:13;;;;;;;30.90;14.50;;;;;;;2.80;59.26;100486.60;107470;1254;97807;-61
2023/03/06 05:44:41;;;;;;;46.70;16.50;;;;;;;2.83;59.10;100489.44;107444;1254;97697;-60
2023/03/06 05:47:10;;;;;;;44.60;14.60;;;;;;;2.86;59.23;100490.17;107468;1254;111988;-62
2023/03/06 05:49:39;;;;;;;43.70;14.20;;;;;;;2.88;59.22;100488.40;107422;1254;109730;-60
2023/03/06 05:52:16;;;;;;;29.10;13.70;;;;;;;2.91;58.99;100492.16;107411;1254;108714;-60
2023/03/06 05:54:50;;;;;;;41.30;14.10;;;;;;;2.94;58.92;100497.63;107419;1254;97823;-59
2023/03/06 05:57:22;;;;;;;43.90;17.70;;;;;;;2.96;59.03;100498.54;107436;1254;97753;-60
2023/03/06 05:59:51;;;;;;;30.20;15.60;;;;;;;3.03;59.26;100500.48;107425;1254;111310;-62
2023/03/06 06:02:19;;;;;;;38.30;14.60;;;;;;;3.07;59.42;100501.79;107479;1254;109840;-60
2023/03/06 06:04:48;;;;;;;35.20;16.70;;;;;;;3.11;59.16;100500.27;107406;1254;108731;-60
2023/03/06 06:07:16;;;;;;;36.30;17.20;;;;;;;3.17;59.12;100497.50;107416;1253;97805;-60
2023/03/06 06:09:45;;;;;;;36.90;15.70;;;;;;;3.20;58.80;100498.86;107404;1254;98381;-60
2023/03/06 06:12:14;;;;;;;37.30;16.40;;;;;;;3.25;58.81;100496.42;107458;1254;112070;-60
2023/03/06 06:14:42;;;;;;;37.90;15.80;;;;;;;3.29;58.53;100494.73;107341;1254;109913;-62
2023/03/06 06:17:11;;;;;;;51.10;17.00;;;;;;;3.34;58.65;100489.69;107472;1253;108492;-60
2023/03/06 06:19:39;;;;;;;46.50;17.20;;;;;;;3.39;58.59;100490.58;107388;1254;97821;-60
2023/03/06 06:22:08;;;;;;;39.40;17.40;;;;;;;3.46;58.36;100490.14;107432;1254;97928;-62
2023/03/06 06:24:37;;;;;;;40.10;17.80;;;;;;;3.51;58.21;100495.52;107459;1254;111863;-61
2023/03/06 06:27:07;;;;;;;36.60;16.10;;;;;;;3.57;58.08;100500.13;107419;1254;110020;-61
2023/03/06 06:29:35;;;;;;;36.40;16.10;;;;;;;3.62;58.13;100501.20;107415;1256;107795;-62
2023/03/06 06:32:04;;;;;;;49.50;29.60;;;;;;;3.67;58.25;100499.46;107360;1259;97815;-62
2023/03/06 06:34:33;;;;;;;38.80;17.80;;;;;;;3.72;58.31;100507.16;107448;1254;98353;-62
2023/03/06 06:37:02;;;;;;;59.20;22.10;;;;;;;3.78;58.22;100508.32;107437;1253;111213;-62
2023/03/06 06:39:30;;;;;;;42.40;18.10;;;;;;;3.84;58.16;100509.55;107444;1254;109047;-61
2023/03/06 06:42:00;;;;;;;38.50;18.10;;;;;;;3.90;57.85;100512.55;107419;1254;108138;-61
2023/03/06 06:44:53;;;;;;;42.30;17.00;;;;;;;3.97;58.05;100516.56;107452;1254;97707;-61
2023/03/06 06:47:22;;;;;;;40.50;17.00;;;;;;;4.04;58.01;100516.12;107145;1262;97742;-62
2023/03/06 06:49:54;;;;;;;36.40;17.30;;;;;;;4.10;57.63;100518.55;107398;1257;111787;-60
2023/03/06 06:52:24;;;;;;;43.70;17.10;;;;;;;4.18;57.85;100517.30;107428;1255;109627;-60
2023/03/06 06:54:52;;;;;;;33.80;16.60;;;;;;;4.27;57.50;100517.75;107330;1257;107821;-60
2023/03/06 06:57:21;;;;;;;33.90;16.80;;;;;;;4.38;57.31;100513.51;107411;1254;98475;-61
2023/03/06 06:59:50;;;;;;;39.00;17.90;;;;;;;4.50;56.82;100512.36;107363;1254;98380;-61
2023/03/06 07:02:21;;;;;;;49.80;18.60;;;;;;;4.61;56.49;100513.75;107468;1258;112637;-60
2023/03/06 07:04:50;;;;;;;50.00;21.10;;;;;;;4.74;56.00;100514.80;107465;1254;110039;-61
2023/03/06 07:07:36;;;;;;;45.00;18.00;;;;;;;4.87;56.03;100518.20;107500;1257;108537;-60
2023/03/06 07:10:06;;;;;;;;;;;;;;;4.97;55.74;100519.09;107438;1259;97709;-61
2023/03/06 07:12:36;;;;;;;37.80;18.80;;;;;;;5.06;55.04;100523.48;107507;1254;97812;-62
2023/03/06 07:15:05;;;;;;;40.70;15.50;;;;;;;5.16;55.14;100521.86;107426;1254;111523;-61
2023/03/06 07:17:34;;;;;;;38.40;15.90;;;;;;;5.28;54.77;100526.19;107419;1258;108609;-61
2023/03/06 07:20:05;;;;;;;44.10;17.70;;;;;;;5.37;54.39;100525.38;107494;1254;107485;-61
2023/03/06 07:22:34;;;;;;;35.40;16.80;;;;;;;5.48;54.43;100528.21;107449;1256;97723;-63
2023/03/06 07:25:18;;;;;;;43.80;16.70;;;;;;;5.54;53.70;100530.08;107421;1254;97749;-61
2023/03/06 07:27:51;;;;;;;50.50;16.60;;;;;;;5.60;53.87;100530.73;107426;1254;111388;-61
2023/03/06 07:30:22;;;;;;;45.30;17.00;;;;;;;5.67;53.15;100532.36;107443;1254;110773;-62
2023/03/06 07:32:53;;;;;;;45.40;17.70;;;;;;;5.81;53.48;100538.17;107269;1254;107809;-61
2023/03/06 07:35:22;;;;;;;34.80;15.10;;;;;;;5.92;52.16;100533.22;107377;1254;99593;-62
2023/03/06 07:37:52;;;;;;;42.80;16.20;;;;;;;6.00;51.56;100534.66;107328;1254;97703;-60
2023/03/06 07:40:20;;;;;;;47.30;20.90;;;;;;;6.09;51.83;100534.19;107433;1254;111880;-62
2023/03/06 07:42:52;;;;;;;67.30;24.30;;;;;;;6.20;51.96;100534.08;107474;1254;111120;-61
2023/03/06 07:45:25;;;;;;;39.50;19.90;;;;;;;6.34;51.74;100536.27;107412;1254;108099;-62
2023/03/06 07:47:54;;;;;;;37.00;17.40;;;;;;;6.49;51.89;100532.48;107484;1254;97970;-63
2023/03/06 07:50:22;;;;;;;29.00;14.80;;;;;;;6.61;51.38;100530.66;107477;1254;97835;-61
2023/03/06 07:52:52;;;;;;;33.60;14.30;;;;;;;6.70;50.95;100528.77;107384;1259;111377;-60
2023/03/06 07:55:21;;;;;;;31.10;15.40;;;;;;;6.82;50.53;100526.64;107407;1254;109072;-61
2023/03/06 07:57:50;;;;;;;39.50;15.30;;;;;;;6.96;49.61;100528.92;107444;1254;108864;-60
2023/03/06 08:00:19;;;;;;;36.10;16.60;;;;;;;7.07;49.59;100530.89;107414;1254;97873;-63
2023/03/06 08:02:48;;;;;;;39.20;16.80;;;;;;;7.19;48.60;100530.73;107465;1254;97912;-61
2023/03/06 08:05:17;;;;;;;27.60;14.30;;;;;;;7.28;48.83;100529.48;107475;1258;112296;-60
2023/03/06 08:07:45;;;;;;;42.00;14.80;;;;;;;7.42;48.85;100528.37;107434;1254;109693;-61
2023/03/06 08:10:16;;;;;;;34.80;15.20;;;;;;;7.54;48.24;100530.09;107431;1254;108609;-62
2023/03/06 08:12:44;;;;;;;34.60;15.30;;;;;;;7.63;48.09;100525.29;107474;1254;97844;-61
2023/03/06 08:15:13;;;;;;;75.50;13.70;;;;;;;7.70;46.49;100524.59;107421;1253;98354;-60
2023/03/06 08:17:41;;;;;;;18.50;10.90;;;;;;;7.72;46.03;100526.39;107477;1254;111277;-61
2023/03/06 08:20:13;;;;;;;34.60;12.90;;;;;;;7.78;45.81;100528.75;107457;1254;109024;-61
2023/03/06 08:22:41;;;;;;;28.40;14.90;;;;;;;7.81;44.26;100531.16;107438;1254;107112;-60
2023/03/06 08:25:12;;;;;;;28.00;14.60;;;;;;;7.92;44.57;100532.09;107435;1254;97820;-61
2023/03/06 08:27:43;;;;;;;34.20;16.80;;;;;;;8.00;43.55;100531.05;107505;1258;97711;-61
2023/03/06 08:30:12;;;;;;;33.20;13.40;;;;;;;7.97;43.70;100527.74;107414;1254;113377;-61
2023/03/06 08:32:40;;;;;;;35.40;15.00;;;;;;;8.00;43.92;100526.61;107470;1254;110069;-61
2023/03/06 08:35:14;;;;;;;32.90;16.10;;;;;;;8.15;44.19;100526.13;107426;1254;108510;-61
2023/03/06 08:37:42;;;;;;;42.10;19.70;;;;;;;8.36;44.22;100522.60;107431;1254;97877;-60
2023/03/06 08:40:12;;;;;;;35.20;17.10;;;;;;;8.57;43.62;100525.91;107468;1254;97806;-61
2023/03/06 08:42:40;;;;;;;36.60;15.10;;;;;;;8.74;42.71;100524.44;107444;1254;112470;-61
2023/03/06 08:45:09;;;;;;;31.30;10.60;;;;;;;8.94;41.21;100530.05;107450;1253;109701;-61
2023/03/06 08:47:38;;;;;;;25.50;10.90;;;;;;;9.12;38.65;100526.41;107487;1254;108285;-60
2023/03/06 08:50:07;;;;;;;24.20;8.20;;;;;;;9.25;38.53;100525.81;107464;1254;97840;-62
2023/03/06 08:52:35;;;;;;;18.00;6.80;;;;;;;9.40;36.92;100527.02;107467;1254;97700;-62
2023/03/06 08:55:04;;;;;;;21.50;7.40;;;;;;;9.53;36.67;100521.63;107471;1254;112842;-61
2023/03/06 08:57:32;;;;;;;17.10;9.50;;;;;;;9.66;36.82;100522.65;107502;1254;110268;-61
2023/03/06 09:00:00;;;;;;;16.90;9.10;;;;;;;9.76;37.97;100522.44;107443;1258;109473;-62
2023/03/06 09:02:29;;;;;;;19.80;7.20;;;;;;;9.97;37.43;100524.04;107434;1254;97832;-61
2023/03/06 09:05:00;;;;;;;31.00;7.90;;;;;;;10.12;36.12;100529.27;107428;1254;97712;-60
2023/03/06 09:07:29;;;;;;;22.30;7.20;;;;;;;10.27;36.23;100532.60;107430;1254;112238;-61
2023/03/06 09:09:58;;;;;;;17.70;7.10;;;;;;;10.41;35.85;100532.78;107465;1254;108526;-63
2023/03/06 09:12:27;;;;;;;15.20;6.20;;;;;;;10.48;34.57;100535.05;107433;1254;108599;-60
2023/03/06 09:14:58;;;;;;;12.90;6.90;;;;;;;10.54;34.63;100536.83;107413;1254;97859;-61
2023/03/06 09:17:26;;;;;;;17.00;7.60;;;;;;;10.72;34.94;100533.73;107437;1254;98337;-61
2023/03/06 09:19:54;;;;;;;31.10;7.10;;;;;;;11.01;35.21;100529.61;107447;1254;112851;-61
2023/03/06 09:22:23;;;;;;;21.00;7.00;;;;;;;11.31;33.48;100532.30;107484;1254;110151;-61
2023/03/06 09:24:52;;;;;;;26.20;8.40;;;;;;;11.57;33.56;100528.03;107416;1254;107769;-59
2023/03/06 09:27:21;;;;;;;19.50;8.20;;;;;;;11.90;34.04;100522.16;107475;1254;97886;-62
2023/03/06 09:29:50;;;;;;;17.90;7.10;;;;;;;12.35;33.41;100519.05;107446;1258;97717;-61
2023/03/06 09:32:19;;;;;;;33.90;8.80;;;;;;;13.03;33.09;100517.56;107453;1254;113014;-64
2023/03/06 09:34:47;;;;;;;24.20;7.60;;;;;;;13.81;32.49;100516.73;107436;1254;108963;-62
2023/03/06 09:37:17;;;;;;;28.10;8.00;;;;;;;14.50;31.69;100512.35;107316;1259;108256;-62
2023/03/06 09:39:45;;;;;;;23.20;8.00;;;;;;;15.11;31.00;100508.74;107472;1254;97825;-60
2023/03/06 09:42:20;;;;;;;14.70;7.40;;;;;;;15.65;29.70;100511.51;107454;1254;98377;-61
2023/03/06 09:44:54;;;;;;;14.50;6.80;;;;;;;16.20;29.26;100507.72;107462;1254;110795;-60
2023/03/06 09:47:47;;;;;;;26.30;6.90;;;;;;;16.73;28.30;100503.02;107441;1254;110089;-61
2023/03/06 09:51:01;;;;;;;16.90;7.20;;;;;;;17.29;26.59;100502.19;107365;1255;108167;-63
2023/03/06 09:53:46;;;;;;;22.00;12.80;;;;;;;17.72;26.08;100503.41;107066;1255;243210;-61
2023/03/06 09:56:23;;;;;;;18.30;7.10;;;;;;;18.28;26.91;100500.13;107457;1254;97825;-63
2023/03/06 09:58:58;;;;;;;10.80;5.60;;;;;;;18.84;24.54;100495.27;107425;1253;111585;-62
2023/03/06 10:01:31;;;;;;;18.80;8.10;;;;;;;19.00;23.72;100490.20;107490;1254;109686;-63
2023/03/06 10:04:18;;;;;;;10.60;5.80;;;;;;;19.39;22.81;100488.65;107453;1254;107624;-62
2023/03/06 10:06:49;;;;;;;18.70;5.80;;;;;;;19.59;21.88;100486.35;107391;1254;97814;-63
2023/03/06 10:09:20;;;;;;;9.00;5.20;;;;;;;19.76;22.78;100486.38;107439;1254;97944;-63
2023/03/06 10:11:57;;;;;;;10.40;5.70;;;;;;;19.85;21.70;100481.77;107452;1258;111094;-62
2023/03/06 10:14:42;;;;;;;8.60;5.70;;;;;;;19.58;22.08;100481.02;107429;1257;109073;-61
2023/03/06 10:17:19;;;;;;;14.80;6.30;;;;;;;19.77;21.98;100477.82;107386;1254;108303;-63
2023/03/06 10:19:49;;;;;;;11.20;5.90;;;;;;;19.48;21.46;100481.00;107342;1254;97848;-61
2023/03/06 10:22:52;;;;;;;22.20;5.30;;;;;;;18.66;21.41;100476.54;107452;1254;97833;-62
2023/03/06 10:25:36;;;;;;;9.70;5.80;;;;;;;17.26;21.72;100487.14;107370;1257;111227;-61
2023/03/06 10:28:23;;;;;;;13.30;6.00;;;;;;;16.11;22.71;100484.34;107286;1257;109298;-60
2023/03/06 10:31:10;;;;;;;9.40;6.00;;;;;;;15.12;23.77;100487.45;107385;1256;109463;-62
2023/03/06 10:34:07;;;;;;;9.10;6.00;;;;;;;14.09;24.60;100493.51;107350;1254;97814;-62
2023/03/06 10:36:35;;;;;;;12.60;6.70;;;;;;;13.32;26.09;100485.90;107467;1254;98361;-62
2023/03/06 10:39:13;;;;;;;13.10;6.40;;;;;;;13.07;26.58;100488.86;107472;1253;112988;-62
2023/03/06 10:41:44;;;;;;;9.90;6.00;;;;;;;12.80;26.84;100487.35;107479;1253;108496;-62
2023/03/06 10:44:13;;;;;;;9.30;5.50;;;;;;;12.80;27.65;100483.73;107405;1254;108274;-61
2023/03/06 10:46:45;;;;;;;15.30;6.40;;;;;;;12.94;27.49;100482.33;107441;1253;97857;-60
2023/03/06 10:49:13;;;;;;;11.70;5.90;;;;;;;13.25;26.98;100476.07;107437;1254;98357;-60
2023/03/06 10:52:17;;;;;;;13.60;5.90;;;;;;;14.08;26.66;100472.70;107441;1254;113011;-62
2023/03/06 10:54:49;;;;;;;12.60;6.30;;;;;;;14.17;26.88;100469.90;107375;1254;111149;-61
2023/03/06 10:57:30;;;;;;;10.60;6.10;;;;;;;14.15;26.89;100466.76;107428;1254;108433;-62
2023/03/06 11:00:03;;;;;;;13.00;6.90;;;;;;;14.00;26.92;100466.12;107303;1259;97861;-62
2023/03/06 11:02:39;;;;;;;11.20;5.50;;;;;;;13.87;26.31;100461.47;107392;1257;97913;-62
2023/03/06 11:05:19;;;;;;;14.40;6.60;;;;;;;13.64;26.40;100458.07;107351;1257;111929;-61
2023/03/06 11:07:58;;;;;;;15.10;5.70;;;;;;;13.40;26.70;100458.10;107405;1257;110101;-61
2023/03/06 11:10:29;;;;;;;16.90;6.70;;;;;;;13.15;26.95;100456.73;107377;1257;108460;-61
2023/03/06 11:12:59;;;;;;;12.60;5.50;;;;;;;12.85;27.14;100460.56;107372;1257;97824;-60
2023/03/06 11:15:28;;;;;;;17.80;6.50;;;;;;;12.64;27.50;100458.04;107390;1257;97826;-60
2023/03/06 11:17:57;;;;;;;13.40;6.30;;;;;;;12.30;26.79;100461.59;107433;1257;111733;-62
2023/03/06 11:20:33;;;;;;;19.40;6.40;;;;;;;11.87;27.28;100457.20;107416;1257;109587;-62
2023/03/06 11:23:43;;;;;;;16.50;6.70;;;;;;;11.52;27.81;100459.16;107289;1256;108865;-61